Time;durP1;ratioP1;P1;durP2;ratioP2;P2;SDS_P1;SDS_P2;PMS_P1;PMS_P2;Temp;Humidity;BMP_temperature;BMP_pressure;BME280_temperature;BME280_humidity;BME280_pressure;Samples;Min_cycle;Max_cycle;Signal;HPM_P1;HPM_P2
2021/11/20 00:01:17;;;;;;;56.85;28.63;;;6.20;99.90;;;;;;5035562;28;20059;-65
2021/11/20 00:03:45;;;;;;;52.80;28.48;;;6.10;99.90;;;;;;5035915;28;20468;-66
2021/11/20 00:06:13;;;;;;;55.17;28.63;;;6.00;99.90;;;;;;5032349;28;20030;-66
2021/11/20 00:08:39;;;;;;;58.88;28.33;;;6.50;99.90;;;;;;5032865;28;20075;-65
2021/11/20 00:11:08;;;;;;;50.42;26.98;;;6.20;99.90;;;;;;5035006;28;20439;-65
2021/11/20 00:13:35;;;;;;;53.75;27.58;;;6.00;99.90;;;;;;5033756;28;20022;-66
2021/11/20 00:16:03;;;;;;;52.20;27.08;;;5.70;99.90;;;;;;5032203;28;20017;-67
2021/11/20 00:18:31;;;;;;;58.80;28.08;;;6.70;99.90;;;;;;5032109;28;20060;-65
2021/11/20 00:21:01;;;;;;;59.92;28.02;;;5.70;99.90;;;;;;5032401;28;20411;-67
2021/11/20 00:23:31;;;;;;;60.17;28.73;;;6.20;99.90;;;;;;5032511;28;20029;-65
2021/11/20 00:25:59;;;;;;;60.97;27.50;;;6.00;99.90;;;;;;5032073;28;20076;-66
2021/11/20 00:28:43;;;;;;;56.42;27.48;;;6.10;99.90;;;;;;5031971;28;21058;-67
2021/11/20 00:31:13;;;;;;;57.95;27.02;;;6.00;99.90;;;;;;5032249;28;20056;-67
2021/11/20 00:33:41;;;;;;;57.80;26.50;;;6.50;99.90;;;;;;5032278;28;20026;-67
2021/11/20 00:36:08;;;;;;;61.05;28.15;;;6.70;99.90;;;;;;5031483;28;20484;-67
2021/11/20 00:38:35;;;;;;;59.15;27.35;;;6.20;99.90;;;;;;5031951;28;20032;-66
2021/11/20 00:41:07;;;;;;;48.88;24.92;;;5.80;99.90;;;;;;5032148;28;20495;-67
2021/11/20 00:43:34;;;;;;;56.13;25.90;;;6.20;99.90;;;;;;5031911;28;20408;-66
2021/11/20 00:45:59;;;;;;;52.42;26.10;;;6.30;99.90;;;;;;5031515;28;20821;-66
2021/11/20 00:48:26;;;;;;;50.85;24.73;;;6.40;99.90;;;;;;5032073;28;20136;-67
2021/11/20 00:50:59;;;;;;;48.67;25.55;;;6.10;99.90;;;;;;5032170;28;20392;-65
2021/11/20 00:53:26;;;;;;;51.92;25.20;;;6.20;99.90;;;;;;5032312;28;20492;-65
2021/11/20 00:55:53;;;;;;;52.60;24.33;;;6.30;99.90;;;;;;5031210;28;20021;-67
2021/11/20 00:58:19;;;;;;;52.08;25.02;;;7.00;99.90;;;;;;5031309;28;20500;-66
2021/11/20 01:00:52;;;;;;;51.45;25.40;;;6.80;99.90;;;;;;5031783;28;20029;-66
2021/11/20 01:03:18;;;;;;;46.33;24.83;;;6.00;99.90;;;;;;5031746;28;20033;-67
2021/11/20 01:05:44;;;;;;;41.80;21.33;;;6.40;99.90;;;;;;5030958;28;20021;-66
2021/11/20 01:08:12;;;;;;;41.10;20.23;;;6.30;99.90;;;;;;5031184;28;20035;-66
2021/11/20 01:10:41;;;;;;;36.03;19.92;;;6.10;99.90;;;;;;5031634;28;20025;-66
2021/11/20 01:13:07;;;;;;;40.67;20.13;;;6.40;99.90;;;;;;5031075;28;20033;-67
2021/11/20 01:15:37;;;;;;;35.70;19.02;;;6.30;99.90;;;;;;5030708;28;20360;-65
2021/11/20 01:18:04;;;;;;;41.40;20.08;;;6.20;99.90;;;;;;5031323;28;20034;-67
2021/11/20 01:20:30;;;;;;;43.45;21.92;;;6.30;99.90;;;;;;5013674;28;20025;-67
2021/11/20 01:22:56;;;;;;;42.25;22.23;;;6.20;99.90;;;;;;5031204;28;20026;-67
2021/11/20 01:25:22;;;;;;;44.50;22.50;;;6.30;99.90;;;;;;5031029;28;20546;-66
2021/11/20 01:27:48;;;;;;;42.65;22.05;;;6.40;99.90;;;;;;5037114;28;20025;-65
2021/11/20 01:30:14;;;;;;;45.38;22.52;;;6.40;99.90;;;;;;5037789;28;20041;-67
2021/11/20 01:32:40;;;;;;;42.80;22.08;;;6.50;99.90;;;;;;5034510;28;20022;-65
2021/11/20 01:35:07;;;;;;;48.53;23.10;;;6.40;99.90;;;;;;5036290;28;20503;-64
2021/11/20 01:37:35;;;;;;;41.25;21.85;;;6.30;99.90;;;;;;5039469;28;20087;-65
2021/11/20 01:40:02;;;;;;;44.63;22.10;;;6.60;99.90;;;;;;5042833;28;20029;-65
2021/11/20 01:42:31;;;;;;;41.10;20.52;;;6.60;99.90;;;;;;5038890;28;20104;-65
2021/11/20 01:45:13;;;;;;;39.55;21.60;;;6.50;99.90;;;;;;5031096;28;20392;-65
2021/11/20 01:47:43;;;;;;;38.15;19.35;;;6.80;99.90;;;;;;5031714;28;20100;-65
2021/11/20 01:50:14;;;;;;;33.78;19.38;;;6.60;99.90;;;;;;5031352;28;20037;-64
2021/11/20 01:52:52;;;;;;;41.33;20.73;;;6.60;99.90;;;;;;5031688;28;20381;-65
2021/11/20 01:55:28;;;;;;;42.83;20.98;;;5.90;99.90;;;;;;5030747;28;20032;-66
2021/11/20 01:58:19;;;;;;;36.35;20.00;;;6.50;99.90;;;;;;5030426;28;20395;-65
2021/11/20 02:01:03;;;;;;;37.47;19.95;;;6.70;99.90;;;;;;5031359;28;20025;-67
2021/11/20 02:03:49;;;;;;;33.80;17.50;;;6.30;99.90;;;;;;5031586;28;20052;-65
2021/11/20 02:06:29;;;;;;;31.67;17.83;;;6.30;99.90;;;;;;5030572;28;20091;-67
2021/11/20 02:09:09;;;;;;;33.53;17.13;;;6.50;99.90;;;;;;5030833;28;20026;-66
2021/11/20 02:11:38;;;;;;;32.58;17.67;;;6.30;99.90;;;;;;5031171;28;20029;-66
2021/11/20 02:14:05;;;;;;;34.72;18.42;;;6.70;99.90;;;;;;5030846;28;20488;-65
2021/11/20 02:16:52;;;;;;;31.80;17.33;;;6.50;99.90;;;;;;5011301;28;20029;-66
2021/11/20 02:19:24;;;;;;;36.20;17.40;;;6.10;99.90;;;;;;5030933;28;20083;-67
2021/11/20 02:21:55;;;;;;;32.00;17.98;;;6.70;99.90;;;;;;5031548;28;20026;-66
2021/11/20 02:24:21;;;;;;;28.63;15.95;;;6.40;99.90;;;;;;5031862;28;20037;-66
2021/11/20 02:26:46;;;;;;;30.23;16.48;;;6.30;99.90;;;;;;5032429;28;20412;-66
2021/11/20 02:29:13;;;;;;;32.30;17.35;;;6.30;99.90;;;;;;5014184;28;20022;-67
2021/11/20 02:31:46;;;;;;;32.88;18.52;;;6.30;99.90;;;;;;5011353;28;20029;-66
2021/11/20 02:34:15;;;;;;;34.63;20.63;;;6.20;99.90;;;;;;5011146;28;20101;-66
2021/11/20 02:36:41;;;;;;;38.22;20.27;;;6.50;99.90;;;;;;5010584;28;20101;-67
2021/11/20 02:39:22;;;;;;;40.00;20.35;;;6.40;99.90;;;;;;5010596;28;20457;-67
2021/11/20 02:41:51;;;;;;;41.17;20.67;;;6.40;99.90;;;;;;5010283;28;20175;-67
2021/11/20 02:44:19;;;;;;;40.45;19.95;;;6.10;99.90;;;;;;5009392;28;20026;-66
2021/11/20 02:46:54;;;;;;;36.78;19.58;;;6.50;99.90;;;;;;5010955;28;20402;-66
2021/11/20 02:49:21;;;;;;;37.55;20.02;;;7.00;99.90;;;;;;5011027;28;20534;-66
2021/11/20 02:51:53;;;;;;;38.40;20.73;;;6.20;99.90;;;;;;5012025;28;20563;-66
2021/11/20 02:54:25;;;;;;;41.92;20.70;;;6.60;99.90;;;;;;5012990;28;20132;-66
2021/11/20 02:57:07;;;;;;;44.80;20.65;;;6.50;99.90;;;;;;5018541;28;20022;-66
2021/11/20 02:59:34;;;;;;;44.03;22.60;;;6.40;99.90;;;;;;5015944;28;20495;-66
2021/11/20 03:02:00;;;;;;;46.65;22.35;;;6.70;99.90;;;;;;5033920;28;20545;-65
2021/11/20 03:04:26;;;;;;;45.58;22.27;;;6.10;99.90;;;;;;5033311;28;20506;-66
2021/11/20 03:06:54;;;;;;;53.15;23.70;;;6.50;99.90;;;;;;5033978;28;20375;-65
2021/11/20 03:09:24;;;;;;;59.03;25.63;;;6.30;99.90;;;;;;5033494;28;20025;-65
2021/11/20 03:11:51;;;;;;;54.63;23.05;;;6.00;99.90;;;;;;5034116;28;20475;-65
2021/11/20 03:14:17;;;;;;;54.60;25.65;;;6.50;99.90;;;;;;5033273;28;20025;-64
2021/11/20 03:16:56;;;;;;;58.17;24.42;;;6.40;99.90;;;;;;5034045;28;20029;-65
2021/11/20 03:19:23;;;;;;;51.65;23.73;;;6.10;99.90;;;;;;5033511;28;20025;-66
2021/11/20 03:21:54;;;;;;;65.88;25.23;;;6.40;99.90;;;;;;5034063;28;20052;-66
2021/11/20 03:24:22;;;;;;;59.80;24.13;;;6.00;99.90;;;;;;5032977;28;20021;-65
2021/11/20 03:26:48;;;;;;;60.80;24.30;;;6.50;99.90;;;;;;5033232;28;20443;-65
2021/11/20 03:29:15;;;;;;;54.13;22.80;;;6.30;99.90;;;;;;5033365;28;20084;-66
2021/11/20 03:31:42;;;;;;;58.45;25.05;;;6.50;99.90;;;;;;5033726;28;20018;-65
2021/11/20 03:34:08;;;;;;;58.42;25.42;;;6.10;99.90;;;;;;5033525;28;20024;-65
2021/11/20 03:36:34;;;;;;;62.03;25.08;;;6.30;99.90;;;;;;5032709;28;20057;-66
2021/11/20 03:39:03;;;;;;;55.75;24.85;;;6.10;99.90;;;;;;5033020;28;20119;-66
2021/11/20 03:41:29;;;;;;;54.42;24.52;;;6.70;99.90;;;;;;5033613;28;20029;-66
2021/11/20 03:43:54;;;;;;;59.03;24.50;;;6.70;99.90;;;;;;5015982;28;20076;-65
2021/11/20 03:46:20;;;;;;;57.25;24.70;;;6.40;99.90;;;;;;5032974;28;20025;-65
2021/11/20 03:48:46;;;;;;;58.80;24.83;;;6.80;99.90;;;;;;5033332;28;20104;-65
2021/11/20 03:51:11;;;;;;;59.38;24.63;;;6.10;99.90;;;;;;5033694;28;20030;-66
2021/11/20 03:53:37;;;;;;;59.10;25.00;;;6.30;99.90;;;;;;5032800;28;20036;-66
2021/11/20 03:56:03;;;;;;;53.67;22.45;;;6.40;99.90;;;;;;5032450;28;20033;-66
2021/11/20 03:58:29;;;;;;;58.65;24.95;;;6.20;99.90;;;;;;5032250;28;20045;-66
2021/11/20 04:01:01;;;;;;;62.03;25.60;;;6.70;99.90;;;;;;5032668;28;20168;-66
2021/11/20 04:03:28;;;;;;;57.30;26.23;;;6.20;99.90;;;;;;5032699;28;20018;-67
2021/11/20 04:05:55;;;;;;;64.63;26.13;;;5.80;99.90;;;;;;5031727;28;20037;-66
2021/11/20 04:08:21;;;;;;;56.30;23.50;;;6.10;99.90;;;;;;5032684;28;20479;-67
2021/11/20 04:10:50;;;;;;;52.78;23.05;;;5.70;99.90;;;;;;5033341;28;20037;-66
2021/11/20 04:13:17;;;;;;;65.50;23.83;;;6.20;99.90;;;;;;5032819;28;20029;-66
2021/11/20 04:15:44;;;;;;;62.25;23.60;;;6.10;99.90;;;;;;5032045;28;20033;-66
2021/11/20 04:18:10;;;;;;;64.45;24.33;;;6.20;99.90;;;;;;5032486;28;20087;-67
2021/11/20 04:20:36;;;;;;;63.38;25.35;;;6.90;99.90;;;;;;5032514;28;20083;-65
2021/11/20 04:23:04;;;;;;;67.20;24.30;;;6.10;99.90;;;;;;5032421;28;20055;-66
2021/11/20 04:25:31;;;;;;;63.72;23.40;;;6.20;99.90;;;;;;5031775;28;20461;-66
2021/11/20 04:27:57;;;;;;;61.20;24.63;;;6.20;99.90;;;;;;5014120;28;20049;-66
2021/11/20 04:30:23;;;;;;;61.85;23.98;;;6.10;99.90;;;;;;5032317;28;20060;-65
2021/11/20 04:32:50;;;;;;;65.22;24.10;;;6.10;99.90;;;;;;5032024;28;20439;-65
2021/11/20 04:35:17;;;;;;;60.85;23.77;;;6.00;99.90;;;;;;5031686;28;20476;-65
2021/11/20 04:37:43;;;;;;;61.42;23.40;;;6.00;99.90;;;;;;5032129;28;20447;-67
2021/11/20 04:40:10;;;;;;;63.88;22.65;;;6.10;99.90;;;;;;5030784;28;20105;-67
2021/11/20 04:42:36;;;;;;;62.08;23.70;;;6.30;99.90;;;;;;5031260;28;20021;-67
2021/11/20 04:45:04;;;;;;;61.03;24.17;;;6.30;99.90;;;;;;5030243;28;20681;-65
2021/11/20 04:47:29;;;;;;;62.20;23.52;;;6.60;99.90;;;;;;5031089;28;20102;-65
2021/11/20 04:49:55;;;;;;;63.63;24.65;;;6.00;99.90;;;;;;5032365;28;20108;-66
2021/11/20 04:52:21;;;;;;;65.82;22.45;;;6.60;99.90;;;;;;5032192;28;20087;-65
2021/11/20 04:54:47;;;;;;;63.03;24.40;;;6.10;99.90;;;;;;5030820;28;20039;-67
2021/11/20 04:57:12;;;;;;;63.65;23.08;;;6.00;99.90;;;;;;5031979;28;20659;-67
2021/11/20 04:59:38;;;;;;;54.92;23.33;;;6.10;99.90;;;;;;5030993;28;20076;-66
2021/11/20 05:02:04;;;;;;;61.35;23.80;;;6.20;99.90;;;;;;5031916;28;20045;-66
2021/11/20 05:04:31;;;;;;;65.15;23.48;;;6.60;99.90;;;;;;5030955;28;20084;-66
2021/11/20 05:06:57;;;;;;;66.95;23.90;;;6.00;99.90;;;;;;5043865;28;20025;-66
2021/11/20 05:09:23;;;;;;;74.00;23.92;;;6.20;99.90;;;;;;5035895;28;20169;-66
2021/11/20 05:11:49;;;;;;;77.95;26.08;;;6.10;99.90;;;;;;5031801;28;20025;-67
2021/11/20 05:14:15;;;;;;;79.13;24.02;;;6.00;99.90;;;;;;5031473;28;20101;-65
2021/11/20 05:16:41;;;;;;;82.38;26.00;;;5.90;99.90;;;;;;5031024;28;20128;-66
2021/11/20 05:19:07;;;;;;;79.55;25.42;;;6.20;99.90;;;;;;5031547;28;20022;-68
2021/11/20 05:21:33;;;;;;;88.47;27.05;;;6.10;99.90;;;;;;5031522;28;20029;-65
2021/11/20 05:23:59;;;;;;;69.30;23.52;;;6.50;99.90;;;;;;5031047;28;20132;-66
2021/11/20 05:26:25;;;;;;;61.50;22.95;;;5.90;99.90;;;;;;5031048;28;20510;-67
2021/11/20 05:29:04;;;;;;;60.03;22.40;;;6.10;99.90;;;;;;5031196;28;20032;-66
2021/11/20 05:31:30;;;;;;;62.00;22.45;;;6.30;99.90;;;;;;5032626;28;20040;-65
2021/11/20 05:33:56;;;;;;;57.75;21.52;;;6.10;99.90;;;;;;5030374;28;20056;-66
2021/11/20 05:36:26;;;;;;;59.15;22.10;;;8.10;99.90;;;;;;5011931;28;20053;-66
2021/11/20 05:38:52;;;;;;;56.78;21.60;;;6.20;99.90;;;;;;5029754;28;20033;-66
2021/11/20 05:41:19;;;;;;;59.63;21.92;;;5.90;99.90;;;;;;5029841;28;20036;-66
2021/11/20 05:43:45;;;;;;;55.55;19.55;;;6.60;99.90;;;;;;5029851;28;20506;-67
2021/11/20 05:46:14;;;;;;;51.67;21.15;;;6.10;99.90;;;;;;5029548;28;20037;-67
2021/11/20 05:48:40;;;;;;;53.65;20.38;;;6.20;99.90;;;;;;5029713;28;20026;-65
2021/11/20 05:51:06;;;;;;;56.00;19.50;;;6.40;99.90;;;;;;5030275;28;20025;-68
2021/11/20 05:53:32;;;;;;;47.42;19.83;;;6.00;99.90;;;;;;5029877;28;20021;-67
2021/11/20 05:55:58;;;;;;;52.08;20.35;;;6.20;99.90;;;;;;5028985;28;20506;-67
2021/11/20 05:58:25;;;;;;;51.05;19.35;;;5.90;99.90;;;;;;5028814;28;20044;-67
2021/11/20 06:00:54;;;;;;;50.60;18.58;;;5.60;99.90;;;;;;5029939;28;20104;-65
2021/11/20 06:03:22;;;;;;;43.88;17.95;;;5.60;99.90;;;;;;5030912;28;20025;-66
2021/11/20 06:05:49;;;;;;;43.03;18.85;;;6.10;99.90;;;;;;5012329;28;20083;-67
2021/11/20 06:08:15;;;;;;;43.90;17.80;;;6.10;99.90;;;;;;5030421;28;20025;-65
2021/11/20 06:10:43;;;;;;;40.92;17.63;;;6.20;99.90;;;;;;5030879;28;20580;-66
2021/11/20 06:13:11;;;;;;;39.42;16.67;;;5.90;99.90;;;;;;5030580;28;20036;-66
2021/11/20 06:15:38;;;;;;;36.88;16.02;;;6.10;99.90;;;;;;5029573;28;20032;-66
2021/11/20 06:18:04;;;;;;;37.63;16.98;;;6.40;99.90;;;;;;5030503;28;20029;-67
2021/11/20 06:20:31;;;;;;;38.13;14.90;;;6.10;99.90;;;;;;5030555;28;20028;-67
2021/11/20 06:22:58;;;;;;;29.83;14.07;;;6.10;99.90;;;;;;5028341;28;20026;-72
2021/11/20 06:25:23;;;;;;;28.38;14.65;;;6.10;99.90;;;;;;5012764;28;20476;-71
2021/11/20 06:27:51;;;;;;;29.73;14.90;;;5.90;99.90;;;;;;5020502;28;20056;-72
2021/11/20 06:30:21;;;;;;;22.38;12.15;;;6.30;99.90;;;;;;5024314;28;20022;-71
2021/11/20 06:32:47;;;;;;;24.73;12.65;;;5.80;99.90;;;;;;5022292;28;20022;-71
2021/11/20 06:35:17;;;;;;;23.50;13.52;;;6.50;99.90;;;;;;5021336;28;20028;-71
2021/11/20 06:37:45;;;;;;;27.50;13.57;;;6.30;99.90;;;;;;5024481;28;20056;-71
2021/11/20 06:40:15;;;;;;;23.33;12.80;;;5.90;99.90;;;;;;5029276;28;20044;-71
2021/11/20 06:42:43;;;;;;;21.67;12.57;;;6.60;99.90;;;;;;5023591;28;20488;-70
2021/11/20 06:45:11;;;;;;;25.10;13.05;;;6.00;99.90;;;;;;5013532;28;20050;-72
2021/11/20 06:47:37;;;;;;;24.95;13.40;;;6.10;99.90;;;;;;5014332;28;20030;-70
2021/11/20 06:50:04;;;;;;;25.08;13.13;;;6.00;99.90;;;;;;5013926;28;20044;-71
2021/11/20 06:52:29;;;;;;;28.77;14.65;;;6.70;99.90;;;;;;5014411;28;20025;-70
2021/11/20 06:54:55;;;;;;;23.27;14.15;;;6.00;99.90;;;;;;5024485;28;20056;-71
2021/11/20 07:00:27;;;;;;;27.73;15.27;;;6.20;99.90;;;;;;5022279;28;20447;-70
2021/11/20 07:03:15;;;;;;;29.42;15.35;;;6.10;99.90;;;;;;5014273;28;20041;-69
2021/11/20 07:05:56;;;;;;;24.35;13.35;;;6.10;99.90;;;;;;5022942;28;20037;-69
2021/11/20 07:08:25;;;;;;;25.63;13.98;;;6.00;99.90;;;;;;5027406;28;20526;-69
2021/11/20 07:10:54;;;;;;;27.92;13.90;;;6.10;99.90;;;;;;5027810;28;20034;-69
2021/11/20 07:13:21;;;;;;;21.63;12.63;;;6.20;99.90;;;;;;5007725;28;20460;-69
2021/11/20 07:15:47;;;;;;;25.92;13.02;;;6.20;99.90;;;;;;5032648;28;20038;-69
2021/11/20 07:18:13;;;;;;;24.85;12.93;;;6.10;99.90;;;;;;5030694;28;20025;-69
2021/11/20 07:20:40;;;;;;;19.70;11.82;;;6.20;99.90;;;;;;5014000;28;20455;-70
2021/11/20 07:23:07;;;;;;;18.38;11.13;;;6.30;99.90;;;;;;5013813;28;20066;-70
2021/11/20 07:25:33;;;;;;;19.40;11.35;;;6.20;99.90;;;;;;5028692;28;20025;-70
2021/11/20 07:28:00;;;;;;;19.90;11.77;;;6.10;99.90;;;;;;5024901;28;20075;-69
2021/11/20 07:30:29;;;;;;;17.23;10.90;;;6.30;99.90;;;;;;5025291;28;20041;-70
2021/11/20 07:32:56;;;;;;;18.73;11.32;;;6.10;99.90;;;;;;5033176;28;20033;-69
2021/11/20 07:35:27;;;;;;;22.30;10.90;;;6.00;99.90;;;;;;5024347;28;20033;-69
2021/11/20 07:37:53;;;;;;;23.90;12.13;;;6.10;99.90;;;;;;5033277;28;20025;-70
2021/11/20 07:40:19;;;;;;;20.10;10.77;;;6.10;99.90;;;;;;5032498;28;20037;-70
2021/11/20 07:42:45;;;;;;;23.33;12.50;;;6.20;99.90;;;;;;5033316;28;20078;-70
2021/11/20 07:45:11;;;;;;;21.50;11.32;;;6.20;99.90;;;;;;5031278;28;20021;-70
2021/11/20 07:47:37;;;;;;;22.08;12.23;;;6.50;99.90;;;;;;5024697;28;20022;-70
2021/11/20 07:50:04;;;;;;;21.63;12.20;;;6.60;99.90;;;;;;5033445;28;20104;-70
2021/11/20 07:52:30;;;;;;;17.42;11.30;;;6.20;99.90;;;;;;5032872;28;20472;-70
2021/11/20 07:54:56;;;;;;;19.90;11.40;;;6.30;99.90;;;;;;5032405;28;20586;-70
2021/11/20 07:57:22;;;;;;;20.75;11.38;;;6.70;99.90;;;;;;5033822;28;20022;-70
2021/11/20 07:59:47;;;;;;;22.88;11.73;;;6.40;99.90;;;;;;5033941;28;20508;-70
2021/11/20 08:02:13;;;;;;;21.23;11.32;;;6.50;99.90;;;;;;5034234;28;20095;-70
2021/11/20 08:04:39;;;;;;;20.88;11.40;;;6.40;99.90;;;;;;5033269;28;20021;-71
2021/11/20 08:07:06;;;;;;;19.30;11.50;;;6.60;99.90;;;;;;5033742;28;20025;-69
2021/11/20 08:09:32;;;;;;;16.55;10.70;;;7.30;99.90;;;;;;5032415;28;20088;-70
2021/11/20 08:11:59;;;;;;;18.08;10.43;;;6.70;99.90;;;;;;5032712;28;20026;-70
2021/11/20 08:14:25;;;;;;;17.33;9.80;;;6.60;99.90;;;;;;5032029;28;20072;-70
2021/11/20 08:16:51;;;;;;;16.20;8.65;;;6.50;99.90;;;;;;5031936;28;20021;-70
2021/11/20 08:19:17;;;;;;;16.27;9.57;;;6.40;99.90;;;;;;5021036;28;20036;-70
2021/11/20 08:21:43;;;;;;;17.42;10.13;;;6.60;99.90;;;;;;5012740;28;20551;-70
2021/11/20 08:24:09;;;;;;;16.42;10.00;;;6.80;99.90;;;;;;5013069;28;20034;-70
2021/11/20 08:26:37;;;;;;;15.27;8.82;;;6.50;99.90;;;;;;5016875;28;20026;-70
2021/11/20 08:29:09;;;;;;;15.25;9.45;;;6.50;99.90;;;;;;5027568;28;20073;-76
2021/11/20 08:31:36;;;;;;;13.60;9.07;;;6.60;99.90;;;;;;5025898;28;20456;-75
2021/11/20 08:34:02;;;;;;;13.80;9.20;;;6.50;99.90;;;;;;5025155;28;20593;-76
2021/11/20 08:36:28;;;;;;;16.10;8.90;;;6.30;99.90;;;;;;5030169;28;20037;-75
2021/11/20 08:38:54;;;;;;;17.75;10.00;;;6.60;99.90;;;;;;5012350;28;20487;-76
2021/11/20 08:41:20;;;;;;;15.02;9.23;;;6.80;99.90;;;;;;5030849;28;20056;-74
2021/11/20 08:43:46;;;;;;;16.38;8.57;;;7.00;99.90;;;;;;5029726;28;20075;-74
2021/11/20 08:46:12;;;;;;;15.90;9.73;;;6.70;99.90;;;;;;5009686;28;20030;-73
2021/11/20 08:48:38;;;;;;;16.05;9.57;;;6.30;99.90;;;;;;5010425;28;20084;-73
2021/11/20 08:51:11;;;;;;;15.23;8.75;;;6.70;99.90;;;;;;5009890;28;20104;-73
2021/11/20 08:53:37;;;;;;;16.35;9.60;;;6.70;99.90;;;;;;5010634;28;20104;-72
2021/11/20 08:56:03;;;;;;;15.15;9.35;;;6.80;99.90;;;;;;5009688;28;20109;-72
2021/11/20 08:58:31;;;;;;;18.17;10.07;;;6.80;99.90;;;;;;5010108;28;20492;-71
2021/11/20 09:01:01;;;;;;;17.13;10.20;;;6.70;99.90;;;;;;5010113;28;20046;-72
2021/11/20 09:03:39;;;;;;;14.95;9.43;;;6.80;99.90;;;;;;5010390;28;20057;-73
2021/11/20 09:06:16;;;;;;;15.70;9.07;;;6.90;99.90;;;;;;5010098;28;20484;-72
2021/11/20 09:09:05;;;;;;;15.98;8.57;;;6.90;99.90;;;;;;5012286;28;20025;-74
2021/11/20 09:11:40;;;;;;;17.75;9.90;;;7.00;99.90;;;;;;5030040;28;20111;-72
2021/11/20 09:14:12;;;;;;;30.05;21.40;;;6.90;99.90;;;;;;5029848;28;20028;-72
2021/11/20 09:16:39;;;;;;;22.33;11.52;;;7.70;99.90;;;;;;5029207;28;20487;-72
2021/11/20 09:19:07;;;;;;;14.25;8.38;;;7.10;99.90;;;;;;5030193;28;20135;-73
2021/11/20 09:21:33;;;;;;;13.18;7.85;;;7.10;99.90;;;;;;5029811;28;20025;-72
2021/11/20 09:24:00;;;;;;;11.52;7.32;;;7.00;99.90;;;;;;5029832;28;20108;-72
2021/11/20 09:26:27;;;;;;;11.95;7.82;;;6.80;99.90;;;;;;5028575;28;20029;-73
2021/11/20 09:28:55;;;;;;;9.95;6.47;;;6.90;99.90;;;;;;5029088;28;20021;-72
2021/11/20 09:31:21;;;;;;;12.10;6.95;;;6.90;99.90;;;;;;5029301;28;20025;-63
2021/11/20 09:33:47;;;;;;;11.40;7.25;;;6.90;99.90;;;;;;5029614;28;20079;-65
2021/11/20 09:36:13;;;;;;;10.82;6.93;;;7.00;99.90;;;;;;5028817;28;20104;-65
2021/11/20 09:38:40;;;;;;;9.85;6.22;;;7.20;99.90;;;;;;5026687;28;20021;-67
2021/11/20 09:41:28;;;;;;;10.60;6.85;;;7.10;99.90;;;;;;5017638;28;20030;-66
2021/11/20 09:43:58;;;;;;;11.77;7.03;;;7.00;99.90;;;;;;5030340;28;20025;-64
2021/11/20 09:46:45;;;;;;;10.23;6.60;;;7.10;99.90;;;;;;5030196;28;20037;-64
2021/11/20 09:49:23;;;;;;;9.07;6.35;;;7.20;99.90;;;;;;5029836;28;20068;-64
2021/11/20 09:51:52;;;;;;;8.63;6.15;;;7.50;99.90;;;;;;5029544;28;20036;-64
2021/11/20 09:54:26;;;;;;;9.88;6.07;;;7.00;99.90;;;;;;5029211;28;20068;-64
2021/11/20 09:56:55;;;;;;;9.57;6.53;;;7.10;99.90;;;;;;5029243;28;20033;-65
2021/11/20 09:59:30;;;;;;;12.30;8.05;;;7.00;99.90;;;;;;5028563;28;20112;-68
2021/11/20 10:02:02;;;;;;;10.00;5.22;;;7.30;99.90;;;;;;5029059;28;20018;-63
2021/11/20 10:04:47;;;;;;;5.82;4.80;;;7.10;99.90;;;;;;5028286;28;20407;-64
2021/11/20 10:07:21;;;;;;;19.10;9.23;;;7.20;99.90;;;;;;5028980;28;20032;-62
2021/11/20 10:09:53;;;;;;;7.35;4.68;;;7.40;99.90;;;;;;5028771;28;20036;-62
2021/11/20 10:12:47;;;;;;;23.08;10.93;;;7.30;99.90;;;;;;5028719;28;20423;-64
2021/11/20 10:15:13;;;;;;;34.88;15.10;;;7.40;99.90;;;;;;5019678;28;20033;-64
2021/11/20 10:17:44;;;;;;;7.47;5.05;;;7.50;99.90;;;;;;5011056;28;20103;-62
2021/11/20 10:20:24;;;;;;;7.78;4.65;;;7.60;99.90;;;;;;5029059;28;20515;-74
2021/11/20 10:23:25;;;;;;;9.40;4.78;;;7.60;99.90;;;;;;5035775;28;20030;-74
2021/11/20 10:25:57;;;;;;;5.28;4.45;;;7.60;99.90;;;;;;5038649;28;20037;-74
2021/11/20 10:29:10;;;;;;;5.83;4.00;;;7.70;99.90;;;;;;5035308;28;20033;-74
2021/11/20 10:31:38;;;;;;;5.95;4.35;;;7.80;99.90;;;;;;4965076;28;20045;-74
2021/11/20 10:34:27;;;;;;;6.85;5.40;;;7.70;99.90;;;;;;5038874;28;20065;-73
2021/11/20 10:36:58;;;;;;;5.22;4.32;;;7.50;99.90;;;;;;5035089;28;20021;-74
2021/11/20 10:39:39;;;;;;;5.53;4.55;;;7.60;99.90;;;;;;5028656;28;20381;-74
2021/11/20 10:42:13;;;;;;;4.63;4.05;;;7.50;99.90;;;;;;5022252;28;20079;-75
2021/11/20 10:44:39;;;;;;;8.63;4.18;;;8.00;99.90;;;;;;5029511;28;20574;-75
2021/11/20 10:47:06;;;;;;;6.60;4.72;;;8.50;99.90;;;;;;5030337;28;20033;-74
2021/11/20 10:49:47;;;;;;;5.65;4.57;;;8.30;99.90;;;;;;5029159;28;20102;-75
2021/11/20 10:52:25;;;;;;;5.90;4.82;;;7.50;99.90;;;;;;5030373;28;20025;-75
2021/11/20 10:55:27;;;;;;;6.63;4.45;;;7.90;99.90;;;;;;5014926;28;20030;-65
2021/11/20 10:58:19;;;;;;;9.75;5.50;;;7.60;99.90;;;;;;5008315;28;20034;-66
2021/11/20 11:01:11;;;;;;;5.25;4.47;;;7.50;99.90;;;;;;5010626;28;20034;-66
2021/11/20 11:03:48;;;;;;;5.00;4.15;;;7.70;99.90;;;;;;5010375;28;20022;-66
2021/11/20 11:06:31;;;;;;;10.52;6.30;;;7.80;99.90;;;;;;5009666;28;20026;-66
2021/11/20 11:09:16;;;;;;;6.75;4.82;;;8.00;99.90;;;;;;5010046;28;20026;-66
2021/11/20 11:12:04;;;;;;;8.65;4.90;;;7.60;99.90;;;;;;5010481;28;20060;-65
2021/11/20 11:14:57;;;;;;;5.85;4.70;;;7.60;99.90;;;;;;5009876;28;20133;-66
2021/11/20 11:17:43;;;;;;;5.50;5.00;;;7.50;99.90;;;;;;5013872;28;20029;-65
2021/11/20 11:20:39;;;;;;;5.78;5.00;;;7.90;99.90;;;;;;5013621;28;20040;-65
2021/11/20 11:23:26;;;;;;;6.05;4.40;;;7.60;99.90;;;;;;5016271;28;20076;-66
2021/11/20 11:25:57;;;;;;;6.10;4.50;;;7.70;99.90;;;;;;5031757;28;20030;-65
2021/11/20 11:28:27;;;;;;;4.57;4.13;;;7.60;99.90;;;;;;5013387;28;20034;-65
2021/11/20 11:31:11;;;;;;;8.20;4.88;;;7.80;99.90;;;;;;5012206;28;20061;-65
2021/11/20 11:33:44;;;;;;;6.32;4.93;;;7.60;99.90;;;;;;5013462;28;20077;-65
2021/11/20 11:36:16;;;;;;;7.15;4.35;;;7.60;99.90;;;;;;5012798;28;20536;-63
2021/11/20 11:38:52;;;;;;;4.90;4.32;;;7.50;99.90;;;;;;5013574;28;20044;-65
2021/11/20 11:41:27;;;;;;;5.68;4.57;;;7.60;99.90;;;;;;5013383;28;20030;-65
2021/11/20 11:44:11;;;;;;;8.13;5.18;;;7.50;99.90;;;;;;5013376;28;20030;-72
2021/11/20 11:47:01;;;;;;;7.45;5.68;;;7.60;99.90;;;;;;5013080;28;20056;-71
2021/11/20 11:49:42;;;;;;;8.45;5.65;;;7.80;99.90;;;;;;5013567;28;20022;-71
2021/11/20 11:52:30;;;;;;;6.80;5.32;;;7.90;99.90;;;;;;5013424;28;20022;-71
2021/11/20 11:55:23;;;;;;;6.72;4.90;;;8.00;99.90;;;;;;5015181;28;20029;-73
2021/11/20 11:58:25;;;;;;;7.53;4.95;;;8.00;99.90;;;;;;5032346;28;20124;-71
2021/11/20 12:00:53;;;;;;;8.48;5.40;;;8.10;99.90;;;;;;5033006;28;20022;-70
2021/11/20 12:03:25;;;;;;;10.75;6.68;;;8.40;99.90;;;;;;5033513;28;20021;-70
2021/11/20 12:06:03;;;;;;;7.20;5.65;;;8.50;99.90;;;;;;5034669;28;20524;-73
2021/11/20 12:08:40;;;;;;;10.65;5.90;;;8.20;99.90;;;;;;5032344;28;20388;-71
2021/11/20 12:11:13;;;;;;;7.47;5.07;;;8.50;99.90;;;;;;5033107;28;20508;-71
2021/11/20 12:13:48;;;;;;;7.57;5.18;;;8.50;99.90;;;;;;5031767;28;20049;-71
2021/11/20 12:16:22;;;;;;;6.35;4.90;;;8.60;99.90;;;;;;5032598;28;20068;-72
2021/11/20 12:19:18;;;;;;;5.80;4.95;;;8.70;99.90;;;;;;5033207;28;20108;-71
2021/11/20 12:21:57;;;;;;;5.97;4.57;;;8.80;99.90;;;;;;5037209;28;20212;-71
2021/11/20 12:24:43;;;;;;;10.27;7.65;;;8.60;99.90;;;;;;5034362;28;20017;-72
2021/11/20 12:27:32;;;;;;;9.45;6.65;;;8.60;99.90;;;;;;5032958;28;20033;-72
2021/11/20 12:30:11;;;;;;;9.57;4.78;;;8.50;99.90;;;;;;5032524;28;20088;-71
2021/11/20 12:32:58;;;;;;;9.13;4.90;;;8.30;99.90;;;;;;5032495;28;20029;-74
2021/11/20 12:35:37;;;;;;;12.98;9.30;;;8.50;99.90;;;;;;5032470;28;20025;-76
2021/11/20 12:38:20;;;;;;;7.82;5.43;;;8.50;99.90;;;;;;5032699;28;20026;-77
2021/11/20 12:41:07;;;;;;;5.60;4.20;;;8.70;99.90;;;;;;5032105;28;20112;-76
2021/11/20 12:43:47;;;;;;;5.22;4.72;;;8.70;99.90;;;;;;5032681;28;20101;-75
2021/11/20 12:46:34;;;;;;;11.68;10.57;;;8.60;99.90;;;;;;5031894;28;20018;-70
2021/11/20 12:49:19;;;;;;;5.65;5.05;;;8.60;99.90;;;;;;5032762;28;20155;-69
2021/11/20 12:51:45;;;;;;;6.93;4.63;;;8.80;99.90;;;;;;5032734;28;20025;-69
2021/11/20 12:54:19;;;;;;;7.15;4.20;;;9.00;99.90;;;;;;5032300;28;20506;-69
2021/11/20 12:56:45;;;;;;;5.40;4.10;;;9.30;99.90;;;;;;5031573;28;20038;-70
2021/11/20 12:59:16;;;;;;;5.25;4.72;;;9.50;99.90;;;;;;5031402;28;20691;-69
2021/11/20 13:01:58;;;;;;;6.22;3.97;;;10.70;99.90;;;;;;5031702;28;20033;-69
2021/11/20 13:04:48;;;;;;;5.05;3.80;;;10.40;99.90;;;;;;5031261;28;20112;-69
2021/11/20 13:07:32;;;;;;;4.72;3.83;;;10.90;99.90;;;;;;5031255;28;20060;-69